This is the latest recevied weather packets stored in our database for station/object DB0ADS-6. If no packets are shown the sender has not sent any weather packets the latest 1 day(s).
| Time | Temp. | Humidity | Pressure | Rain* | Wind** | Luminosity | Snow |
|---|---|---|---|---|---|---|---|
| 1778076630 | 16.67° C | 62% | 1003.4 hPa | 0 mm | - | - | - |
| 1778073391 | 17.22° C | 60% | 1003.5 hPa | 0 mm | - | - | - |
| 1778073069 | 17.22° C | 59% | 1003.5 hPa | 0 mm | - | - | - |
| 1778071883 | 17.22° C | 59% | 1003.6 hPa | 0 mm | - | - | - |
| 1778070656 | 17.22° C | 61% | 1003.8 hPa | 0 mm | - | - | - |
| 1778070374 | 17.22° C | 60% | 1003.7 hPa | 0 mm | - | - | - |
| 1778070076 | 16.67° C | 62% | 1003.8 hPa | 0 mm | - | - | - |
| 1778069154 | 17.22° C | 59% | 1003.8 hPa | 0 mm | - | - | - |
| 1778068245 | 16.67° C | 63% | 1003.9 hPa | 0 mm | - | - | - |
| 1778067638 | 17.22° C | 60% | 1003.9 hPa | 0 mm | - | - | - |
| 1778067337 | 17.22° C | 61% | 1004 hPa | 0 mm | - | - | - |
| 1778066432 | 16.67° C | 63% | 1004.1 hPa | 0 mm | - | - | - |
| 1778065527 | 16.11° C | 61% | 1004.1 hPa | 0 mm | - | - | - |
| 1778063736 | 16.11° C | 61% | 1004.4 hPa | 0 mm | - | - | - |
| 1778063475 | 16.11° C | 64% | 1004.2 hPa | 0 mm | - | - | - |
| 1778062288 | 16.11° C | 63% | 1004.4 hPa | 0 mm | - | - | - |
| 1778061363 | 16.11° C | 68% | 1004.3 hPa | 0 mm | - | - | - |
| 1778061061 | 15.56° C | 70% | 1004.3 hPa | 0 mm | - | - | - |
| 1778060458 | 15° C | 70% | 1004.3 hPa | 0 mm | - | - | - |
| 1778059854 | 15° C | 72% | 1004.5 hPa | 0 mm | - | - | - |
| 1778059251 | 14.44° C | 73% | 1004.6 hPa | 0 mm | - | - | - |
| 1778058650 | 14.44° C | 76% | 1004.6 hPa | 0 mm | - | - | - |
| 1778058346 | 13.89° C | 78% | 1004.6 hPa | 0 mm | - | - | - |
| 1778058044 | 14.44° C | 77% | 1004.6 hPa | 0 mm | - | - | - |
| 1778057461 | 14.44° C | 77% | 1004.6 hPa | 0 mm | - | - | - |
* Rain latest hour (hover to see other rain measurements)
** Current wind speed in m/s (hover to see current wind gust speed)